createdAt,value
2023-04-17T00:00:16.598Z,2.00
2023-04-17T00:05:23.254Z,1.98
2023-04-17T00:10:26.694Z,2.55
2023-04-17T00:15:31.748Z,2.15
2023-04-17T00:20:35.062Z,1.73
2023-04-17T00:25:38.554Z,2.28
2023-04-17T00:30:43.270Z,2.20
2023-04-17T00:35:46.546Z,1.63
2023-04-17T00:40:51.855Z,2.10
2023-04-17T00:45:56.802Z,1.85
2023-04-17T00:51:02.348Z,3.20
2023-04-17T00:56:07.820Z,2.05
2023-04-17T01:01:12.647Z,2.10
2023-04-17T01:06:16.157Z,2.28
2023-04-17T01:11:19.482Z,2.35
2023-04-17T01:16:24.559Z,2.45
2023-04-17T01:21:28.264Z,2.53
2023-04-17T01:26:33.694Z,1.85
2023-04-17T01:31:37.219Z,2.35
2023-04-17T01:36:41.485Z,3.00
2023-04-17T01:41:46.293Z,2.40
2023-04-17T01:46:49.968Z,1.73
2023-04-17T01:51:53.279Z,2.05
2023-04-17T01:56:58.310Z,2.40
2023-04-17T02:02:01.949Z,1.63
2023-04-17T02:07:05.189Z,2.20
2023-04-17T02:12:09.987Z,1.92
2023-04-17T02:17:13.275Z,1.90
2023-04-17T02:22:18.543Z,2.08
2023-04-17T02:27:23.173Z,1.60
2023-04-17T02:32:26.768Z,2.10
2023-04-17T02:37:30.507Z,1.88
2023-04-17T02:42:35.485Z,2.63
2023-04-17T02:47:39.883Z,2.08
2023-04-17T02:52:43.578Z,2.75
2023-04-17T02:57:48.374Z,2.53
2023-04-17T03:02:52.529Z,1.80
2023-04-17T03:07:56.060Z,1.75
2023-04-17T03:13:01.082Z,2.20
2023-04-17T03:18:04.473Z,2.10
2023-04-17T03:23:07.748Z,1.70
2023-04-17T03:28:12.393Z,2.85
2023-04-17T03:33:16.342Z,1.77
2023-04-17T03:38:19.686Z,1.85
2023-04-17T03:43:25.049Z,2.60
2023-04-17T03:48:29.368Z,2.20
2023-04-17T03:53:33.004Z,3.45
2023-04-17T03:58:40.563Z,2.40
2023-04-17T04:03:46.617Z,2.13
2023-04-17T04:08:50.738Z,2.15
2023-04-17T04:13:56.401Z,2.35
2023-04-17T04:19:03.160Z,2.50
2023-04-17T04:24:06.811Z,3.28
2023-04-17T04:29:14.011Z,3.03
2023-04-17T04:34:38.826Z,3.10
2023-04-17T04:39:43.411Z,2.05
2023-04-17T04:44:52.532Z,2.55
2023-04-17T04:49:56.531Z,2.67
2023-04-17T04:55:01.926Z,2.50
2023-04-17T05:00:10.447Z,2.78
2023-04-17T05:05:20.129Z,1.92
2023-04-17T05:10:23.732Z,2.67
2023-04-17T05:15:33.508Z,2.92
2023-04-17T05:20:37.819Z,2.58
2023-04-17T05:25:42.116Z,2.35
2023-04-17T05:30:47.100Z,2.30
2023-04-17T05:35:56.373Z,2.30
2023-04-17T05:41:01.777Z,2.88
2023-04-17T05:46:06.776Z,2.63
2023-04-17T05:51:10.249Z,2.63
2023-04-17T05:56:14.294Z,2.92
2023-04-17T06:01:22.396Z,3.00
2023-04-17T06:06:29.159Z,2.30
2023-04-17T06:11:32.992Z,2.67
2023-04-17T06:16:37.677Z,3.90
2023-04-17T06:21:41.305Z,2.92
2023-04-17T06:26:44.572Z,3.25
2023-04-17T06:31:49.404Z,2.58
2023-04-17T06:36:56.659Z,2.22
2023-04-17T06:42:00.118Z,3.30
2023-04-17T06:47:06.012Z,3.17
2023-04-17T06:52:09.313Z,3.92
2023-04-17T06:57:12.683Z,3.00
2023-04-17T07:02:17.582Z,3.17
2023-04-17T07:07:21.224Z,3.58
2023-04-17T07:12:24.775Z,2.80
2023-04-17T07:17:29.530Z,2.80
2023-04-17T07:22:33.482Z,3.03
2023-04-17T07:27:38.539Z,4.38
2023-04-17T07:32:43.485Z,4.15
2023-04-17T07:37:46.779Z,3.42
2023-04-17T07:42:50.010Z,2.95
2023-04-17T07:47:54.603Z,3.08
2023-04-17T07:52:58.241Z,3.00
2023-04-17T07:58:04.326Z,3.20
2023-04-17T08:03:09.700Z,2.63
2023-04-17T08:08:13.076Z,3.53
2023-04-17T08:13:16.384Z,3.00
2023-04-17T08:18:21.050Z,3.28
2023-04-17T08:23:24.312Z,3.65
2023-04-17T08:28:27.889Z,4.00
2023-04-17T08:33:32.542Z,3.60
2023-04-17T08:38:35.825Z,3.13
2023-04-17T08:43:39.262Z,2.83
2023-04-17T08:48:43.870Z,3.97
2023-04-17T08:53:47.353Z,3.97
2023-04-17T08:58:50.546Z,4.07
2023-04-17T09:03:57.248Z,3.92
2023-04-17T09:09:02.051Z,4.20
2023-04-17T09:14:05.931Z,4.00
2023-04-17T09:19:11.070Z,3.92
2023-04-17T09:24:14.692Z,3.75
2023-04-17T09:29:17.900Z,4.22
2023-04-17T09:34:22.754Z,6.40
2023-04-17T09:39:26.142Z,3.50
2023-04-17T09:44:30.698Z,5.15
2023-04-17T09:49:42.293Z,4.07
2023-04-17T09:54:51.247Z,2.88
2023-04-17T09:59:59.605Z,4.30
2023-04-17T10:05:08.759Z,3.63
2023-04-17T10:10:14.335Z,3.97
2023-04-17T10:15:18.650Z,4.00
2023-04-17T10:20:38.206Z,5.65
2023-04-17T10:25:41.535Z,4.03
2023-04-17T10:30:54.027Z,3.10
2023-04-17T10:35:59.153Z,3.88
2023-04-17T10:41:04.951Z,3.33
2023-04-17T10:46:13.569Z,3.83
2023-04-17T10:51:43.946Z,3.42
2023-04-17T10:56:48.572Z,3.17
2023-04-17T11:02:00.926Z,4.03
2023-04-17T11:07:06.288Z,3.85
2023-04-17T11:12:09.554Z,4.22
2023-04-17T11:17:12.957Z,4.03
2023-04-17T11:22:19.643Z,3.30
2023-04-17T11:27:24.366Z,4.25
2023-04-17T11:32:27.752Z,3.00
2023-04-17T11:37:32.376Z,5.25
2023-04-17T11:42:36.008Z,3.63
2023-04-17T11:47:39.870Z,3.08
2023-04-17T11:52:47.297Z,3.17
2023-04-17T11:57:55.241Z,3.35
2023-04-17T12:02:59.637Z,3.20
2023-04-17T12:08:07.341Z,2.80
2023-04-17T12:13:12.264Z,2.53
2023-04-17T12:18:15.564Z,2.95
2023-04-17T12:23:20.732Z,3.08
2023-04-17T12:28:24.360Z,2.78
2023-04-17T12:33:27.646Z,2.80
2023-04-17T12:38:32.991Z,2.47
2023-04-17T12:43:36.233Z,2.97
2023-04-17T12:48:39.944Z,3.20
2023-04-17T12:53:44.796Z,3.17
2023-04-17T12:58:48.490Z,3.05
2023-04-17T13:03:54.135Z,3.03
2023-04-17T13:08:58.992Z,3.30
2023-04-17T13:14:02.246Z,3.53
2023-04-17T13:19:05.633Z,4.30
2023-04-17T13:24:14.566Z,3.17
2023-04-17T13:29:19.554Z,4.68
2023-04-17T13:34:23.296Z,3.08
2023-04-17T13:39:28.009Z,3.45
2023-04-17T13:44:32.187Z,2.85
2023-04-17T13:49:35.477Z,2.80
2023-04-17T13:54:41.427Z,3.20
2023-04-17T13:59:44.812Z,3.75
2023-04-17T14:04:48.264Z,3.40
2023-04-17T14:09:52.963Z,3.20
2023-04-17T14:14:58.144Z,3.05
2023-04-17T14:20:01.645Z,3.17
2023-04-17T14:25:07.020Z,3.20
2023-04-17T14:30:10.862Z,2.78
2023-04-17T14:35:14.484Z,4.85
2023-04-17T14:40:19.288Z,4.18
2023-04-17T14:45:22.594Z,4.05
2023-04-17T14:50:25.973Z,3.33
2023-04-17T14:55:31.025Z,3.83
2023-04-17T15:00:34.441Z,3.58
2023-04-17T15:05:37.981Z,3.75
2023-04-17T15:10:50.815Z,2.78
2023-04-17T15:15:55.249Z,3.58
2023-04-17T15:20:58.613Z,4.93
2023-04-17T15:26:03.331Z,3.28
2023-04-17T15:31:07.188Z,3.10
2023-04-17T15:36:11.418Z,4.50
2023-04-17T15:41:16.379Z,3.42
2023-04-17T15:46:19.854Z,3.20
2023-04-17T15:51:23.103Z,3.47
2023-04-17T15:56:27.713Z,2.45
2023-04-17T16:01:31.488Z,2.85
2023-04-17T16:06:34.881Z,3.40
2023-04-17T16:11:39.923Z,3.25
2023-04-17T16:16:43.661Z,3.17
2023-04-17T16:21:46.888Z,3.20
2023-04-17T16:26:57.742Z,2.60
2023-04-17T16:32:01.044Z,4.35
2023-04-17T16:37:04.647Z,3.65
2023-04-17T16:42:09.632Z,2.75
2023-04-17T16:47:14.258Z,2.55
2023-04-17T16:52:18.756Z,4.10
2023-04-17T16:57:23.626Z,2.35
2023-04-17T17:02:27.355Z,2.95
2023-04-17T17:07:31.152Z,5.20
2023-04-17T17:12:35.861Z,3.33
2023-04-17T17:17:40.063Z,5.15
2023-04-17T17:22:43.365Z,3.17
2023-04-17T17:27:48.077Z,3.33
2023-04-17T17:32:52.289Z,4.15
2023-04-17T17:37:57.023Z,4.85
2023-04-17T17:43:02.035Z,4.18
2023-04-17T17:48:06.061Z,4.60
2023-04-17T17:53:09.586Z,5.53
2023-04-17T17:58:14.651Z,4.72
2023-04-17T18:03:18.790Z,5.32
2023-04-17T18:08:23.796Z,5.75
2023-04-17T18:13:29.120Z,4.90
2023-04-17T18:18:33.801Z,5.80
2023-04-17T18:23:37.764Z,6.68
2023-04-17T18:28:43.864Z,6.97
2023-04-17T18:33:48.227Z,6.28
2023-04-17T18:38:53.393Z,4.20
2023-04-17T18:44:00.229Z,5.15
2023-04-17T18:49:04.509Z,3.45
2023-04-17T18:54:08.918Z,4.18
2023-04-17T18:59:15.510Z,4.70
2023-04-17T19:04:20.326Z,3.00
2023-04-17T19:09:24.143Z,3.50
2023-04-17T19:14:32.681Z,3.97
2023-04-17T19:19:36.712Z,2.55
2023-04-17T19:24:42.939Z,3.60
2023-04-17T19:29:48.150Z,3.53
2023-04-17T19:34:52.228Z,3.40
2023-04-17T19:39:56.826Z,4.35
2023-04-17T19:45:02.921Z,4.88
2023-04-17T19:50:10.001Z,5.32
2023-04-17T19:55:14.861Z,3.78
2023-04-17T20:00:21.267Z,3.97
2023-04-17T20:05:25.242Z,4.28
2023-04-17T20:10:29.205Z,5.55
2023-04-17T20:15:34.153Z,4.43
2023-04-17T20:20:38.195Z,5.38
2023-04-17T20:25:41.600Z,3.58
2023-04-17T20:30:46.610Z,4.32
2023-04-17T20:35:50.664Z,6.00
2023-04-17T20:40:54.113Z,5.97
2023-04-17T20:45:59.929Z,5.93
2023-04-17T20:51:05.892Z,3.95
2023-04-17T20:56:09.492Z,4.63
2023-04-17T21:01:14.197Z,4.97
2023-04-17T21:06:17.862Z,4.95
2023-04-17T21:11:22.454Z,5.65
2023-04-17T21:16:27.420Z,5.78
2023-04-17T21:21:30.812Z,5.88
2023-04-17T21:26:34.119Z,6.30
2023-04-17T21:31:39.196Z,5.97
2023-04-17T21:36:42.434Z,6.50
2023-04-17T21:41:45.832Z,6.85
2023-04-17T21:46:50.587Z,4.53
2023-04-17T21:51:53.832Z,5.95
2023-04-17T21:56:57.087Z,5.28
2023-04-17T22:02:01.874Z,6.93
2023-04-17T22:07:05.706Z,4.22
2023-04-17T22:12:12.763Z,4.10
2023-04-17T22:17:17.352Z,4.65
2023-04-17T22:22:20.596Z,5.18
2023-04-17T22:27:24.132Z,5.45
2023-04-17T22:32:28.824Z,7.20
2023-04-17T22:37:32.053Z,4.72
2023-04-17T22:42:35.282Z,5.32
2023-04-17T22:47:40.010Z,5.95
2023-04-17T22:52:43.186Z,5.10
2023-04-17T22:57:46.572Z,5.30
2023-04-17T23:02:51.304Z,3.95
2023-04-17T23:07:54.560Z,5.05
2023-04-17T23:12:57.695Z,4.68
2023-04-17T23:18:02.459Z,6.70
2023-04-17T23:23:11.988Z,5.57
2023-04-17T23:28:15.226Z,5.35
2023-04-17T23:33:19.841Z,4.80
2023-04-17T23:38:23.107Z,5.47
2023-04-17T23:43:26.340Z,4.65
2023-04-17T23:48:31.057Z,5.18
2023-04-17T23:53:34.249Z,4.93
2023-04-17T23:58:37.452Z,4.20
